createdAt,value
2022-08-11T00:01:25.548Z,96.23
2022-08-11T00:03:57.366Z,96.25
2022-08-11T00:06:35.402Z,96.51
2022-08-11T00:09:31.575Z,96.29
2022-08-11T00:12:17.191Z,96.68
2022-08-11T00:14:55.175Z,96.28
2022-08-11T00:17:29.217Z,95.97
2022-08-11T00:20:11.514Z,95.66
2022-08-11T00:22:46.590Z,96.15
2022-08-11T00:25:21.484Z,95.78
2022-08-11T00:27:49.935Z,95.77
2022-08-11T00:30:18.339Z,95.92
2022-08-11T00:32:59.139Z,96.05
2022-08-11T00:35:55.215Z,95.68
2022-08-11T00:38:25.366Z,96.09
2022-08-11T00:40:59.184Z,95.50
2022-08-11T00:43:49.034Z,96.19
2022-08-11T00:46:17.100Z,96.61
2022-08-11T00:49:19.649Z,96.72
2022-08-11T00:52:05.391Z,97.21
2022-08-11T00:54:40.117Z,97.14
2022-08-11T00:57:37.135Z,97.20
2022-08-11T01:00:19.319Z,97.42
2022-08-11T01:03:13.661Z,97.32
2022-08-11T01:06:23.301Z,96.96
2022-08-11T01:09:22.406Z,96.87
2022-08-11T01:12:22.803Z,96.62
2022-08-11T01:15:12.491Z,97.53
2022-08-11T01:18:14.785Z,97.68
2022-08-11T01:21:34.626Z,97.80
2022-08-11T01:24:37.485Z,97.84
2022-08-11T01:27:24.490Z,97.77
2022-08-11T01:30:40.761Z,97.65
2022-08-11T01:33:48.474Z,97.96
2022-08-11T01:36:53.434Z,97.70
2022-08-11T01:39:49.763Z,97.43
2022-08-11T01:43:02.227Z,97.18
2022-08-11T01:46:27.411Z,97.73
2022-08-11T01:50:05.848Z,97.97
2022-08-11T01:52:33.589Z,98.44
2022-08-11T01:55:27.162Z,98.57
2022-08-11T01:58:16.361Z,98.61
2022-08-11T02:01:29.146Z,98.72
2022-08-11T02:04:20.086Z,98.71
2022-08-11T02:07:02.939Z,98.40
2022-08-11T02:09:52.725Z,98.33
2022-08-11T02:12:48.259Z,98.32
2022-08-11T02:15:39.849Z,98.07
2022-08-11T02:18:14.407Z,98.47
2022-08-11T02:21:10.767Z,98.30
2022-08-11T02:24:05.912Z,98.09
2022-08-11T02:26:44.764Z,97.92
2022-08-11T02:29:21.514Z,98.04
2022-08-11T02:32:32.092Z,98.38
2022-08-11T02:35:16.258Z,99.04
2022-08-11T02:38:10.615Z,99.14
2022-08-11T02:40:53.253Z,99.68
2022-08-11T02:43:29.882Z,99.94
2022-08-11T02:46:18.687Z,99.48
2022-08-11T02:50:00.027Z,99.40
2022-08-11T02:52:55.123Z,99.55
2022-08-11T02:55:57.938Z,99.67
2022-08-11T02:58:39.511Z,99.32
2022-08-11T03:01:28.764Z,99.32
2022-08-11T03:04:16.080Z,99.53
2022-08-11T03:07:28.295Z,99.68
2022-08-11T03:10:18.207Z,99.96
2022-08-11T03:13:12.340Z,99.93
2022-08-11T03:16:26.985Z,99.82
2022-08-11T03:19:23.487Z,99.71
2022-08-11T03:22:17.558Z,99.93
2022-08-11T03:25:00.940Z,99.94
2022-08-11T03:27:33.871Z,99.90
2022-08-11T03:30:22.188Z,100.00
2022-08-11T03:33:27.075Z,100.00
2022-08-11T03:36:14.474Z,100.00
2022-08-11T03:39:03.979Z,100.00
2022-08-11T03:42:04.189Z,100.00
2022-08-11T03:45:01.566Z,100.00
2022-08-11T03:47:54.889Z,99.96
2022-08-11T03:50:54.859Z,99.96
2022-08-11T03:53:40.091Z,99.94
2022-08-11T03:56:20.976Z,99.99
2022-08-11T03:59:05.046Z,99.89
2022-08-11T04:02:10.682Z,99.60
2022-08-11T04:05:26.248Z,99.56
2022-08-11T04:07:54.469Z,99.50
2022-08-11T04:10:54.958Z,99.66
2022-08-11T04:14:16.879Z,99.55
2022-08-11T04:16:59.142Z,98.82
2022-08-11T04:19:43.078Z,97.91
2022-08-11T04:22:21.290Z,95.95
2022-08-11T04:25:29.330Z,94.78
2022-08-11T04:28:34.830Z,93.69
2022-08-11T04:31:44.244Z,92.60
2022-08-11T04:34:52.154Z,91.24
2022-08-11T04:37:36.099Z,90.00
2022-08-11T04:40:22.164Z,89.18
2022-08-11T04:43:20.845Z,88.10
2022-08-11T04:46:07.027Z,87.47
2022-08-11T04:49:34.186Z,86.74
2022-08-11T04:52:16.998Z,86.84
2022-08-11T04:55:29.058Z,87.14
2022-08-11T04:58:40.530Z,87.31
2022-08-11T05:01:42.493Z,84.87
2022-08-11T05:04:48.263Z,85.40
2022-08-11T05:07:54.285Z,84.40
2022-08-11T05:10:43.023Z,83.18
2022-08-11T05:13:41.638Z,82.55
2022-08-11T05:16:35.876Z,82.33
2022-08-11T05:19:23.555Z,82.31
2022-08-11T05:22:18.197Z,82.45
2022-08-11T05:25:11.362Z,78.82
2022-08-11T05:28:09.163Z,78.54
2022-08-11T05:31:00.826Z,78.11
2022-08-11T05:34:04.599Z,76.27
2022-08-11T05:36:45.301Z,74.72
2022-08-11T05:39:37.189Z,74.08
2022-08-11T05:42:29.481Z,72.62
2022-08-11T05:45:23.473Z,72.01
2022-08-11T05:48:11.696Z,70.70
2022-08-11T05:50:59.441Z,69.07
2022-08-11T05:53:47.478Z,69.59
2022-08-11T05:56:22.327Z,69.06
2022-08-11T05:58:53.978Z,68.17
2022-08-11T06:01:32.088Z,67.02
2022-08-11T06:04:15.911Z,67.89
2022-08-11T06:06:54.858Z,67.09
2022-08-11T06:09:32.446Z,64.24
2022-08-11T06:12:09.562Z,64.19
2022-08-11T06:14:43.544Z,63.03
2022-08-11T06:17:14.104Z,62.12
2022-08-11T06:19:47.087Z,61.75
2022-08-11T06:22:22.018Z,62.41
2022-08-11T06:25:10.565Z,62.33
2022-08-11T06:27:43.372Z,62.31
2022-08-11T06:30:16.162Z,61.93
2022-08-11T06:32:46.840Z,61.03
2022-08-11T06:35:37.944Z,59.41
2022-08-11T06:38:16.409Z,58.14
2022-08-11T06:41:12.272Z,59.12
2022-08-11T06:44:06.865Z,58.11
2022-08-11T06:46:41.789Z,58.27
2022-08-11T06:49:31.214Z,57.01
2022-08-11T06:52:04.519Z,58.21
2022-08-11T06:54:35.548Z,58.87
2022-08-11T06:57:31.528Z,58.95
2022-08-11T07:00:20.366Z,59.04
2022-08-11T07:03:04.237Z,60.15
2022-08-11T07:05:45.151Z,60.64
2022-08-11T07:08:44.291Z,59.24
2022-08-11T07:12:18.171Z,59.08
2022-08-11T07:15:19.133Z,58.46
2022-08-11T07:18:11.799Z,57.49
2022-08-11T07:21:02.296Z,56.57
2022-08-11T07:23:55.534Z,55.12
2022-08-11T07:26:45.035Z,54.43
2022-08-11T07:29:15.230Z,51.75
2022-08-11T07:31:51.584Z,51.73
2022-08-11T07:34:36.489Z,51.11
2022-08-11T07:37:12.844Z,51.50
2022-08-11T07:39:44.661Z,51.76
2022-08-11T07:42:16.896Z,52.02
2022-08-11T07:45:08.000Z,51.46
2022-08-11T07:47:56.244Z,50.55
2022-08-11T07:50:43.987Z,49.36
2022-08-11T07:53:15.390Z,49.23
2022-08-11T07:55:48.888Z,48.45
2022-08-11T07:58:45.223Z,47.95
2022-08-11T08:01:44.828Z,47.62
2022-08-11T08:04:34.021Z,47.24
2022-08-11T08:07:23.492Z,46.22
2022-08-11T08:10:16.137Z,44.81
2022-08-11T08:13:04.264Z,44.95
2022-08-11T08:15:51.678Z,44.38
2022-08-11T08:18:26.803Z,44.23
2022-08-11T08:21:12.363Z,44.11
2022-08-11T08:23:43.897Z,43.36
2022-08-11T08:26:34.695Z,43.59
2022-08-11T08:29:28.099Z,43.27
2022-08-11T08:31:58.235Z,43.70
2022-08-11T08:34:27.795Z,43.67
2022-08-11T08:37:03.290Z,42.86
2022-08-11T08:39:46.419Z,41.78
2022-08-11T08:42:21.731Z,41.63
2022-08-11T08:44:54.631Z,41.08
2022-08-11T08:47:42.208Z,39.31
2022-08-11T08:50:16.881Z,38.37
2022-08-11T08:52:53.894Z,39.26
2022-08-11T08:55:23.727Z,39.70
2022-08-11T08:57:57.232Z,40.32
2022-08-11T09:00:25.681Z,40.75
2022-08-11T09:02:55.482Z,41.36
2022-08-11T09:05:26.061Z,41.40
2022-08-11T09:09:09.890Z,41.95
2022-08-11T09:12:52.600Z,40.68
2022-08-11T09:15:43.279Z,39.79
2022-08-11T09:18:13.120Z,36.91
2022-08-11T09:20:42.723Z,36.51
2022-08-11T09:26:37.834Z,35.66
2022-08-11T09:29:08.861Z,36.45
2022-08-11T09:31:40.506Z,36.26
2022-08-11T09:34:14.749Z,35.80
2022-08-11T09:37:03.480Z,36.80
2022-08-11T09:39:55.235Z,37.60
2022-08-11T09:42:44.543Z,36.99
2022-08-11T09:45:14.055Z,37.09
2022-08-11T09:47:44.870Z,36.81
2022-08-11T09:50:17.801Z,36.68
2022-08-11T09:53:16.940Z,37.47
2022-08-11T09:55:38.691Z,37.06
2022-08-11T09:58:41.652Z,37.67
2022-08-11T10:01:08.067Z,37.54
2022-08-11T10:03:41.689Z,38.33
2022-08-11T10:06:33.195Z,39.42
2022-08-11T10:09:07.104Z,40.97
2022-08-11T10:11:37.838Z,41.57
2022-08-11T10:14:32.936Z,41.23
2022-08-11T10:17:09.180Z,40.84
2022-08-11T10:19:39.552Z,40.29
2022-08-11T10:22:27.776Z,40.38
2022-08-11T10:25:19.824Z,40.33
2022-08-11T10:28:28.946Z,39.79
2022-08-11T10:31:06.926Z,39.85
2022-08-11T10:34:04.170Z,40.26
2022-08-11T10:36:35.714Z,40.10
2022-08-11T10:39:05.938Z,35.94
2022-08-11T10:42:08.475Z,35.65
2022-08-11T10:44:43.047Z,35.18
2022-08-11T10:47:32.766Z,34.10
2022-08-11T10:50:27.119Z,34.23
2022-08-11T10:53:18.379Z,33.53
2022-08-11T10:56:06.589Z,33.36
2022-08-11T10:58:50.008Z,32.09
2022-08-11T11:01:24.468Z,31.01
2022-08-11T11:04:00.800Z,28.97
2022-08-11T11:06:47.286Z,29.48
2022-08-11T11:09:20.622Z,30.38
2022-08-11T11:12:15.398Z,30.29
2022-08-11T11:15:03.489Z,30.26
2022-08-11T11:18:02.125Z,31.15
2022-08-11T11:20:47.779Z,31.02
2022-08-11T11:23:24.136Z,31.44
2022-08-11T11:26:07.133Z,31.43
2022-08-11T11:28:43.215Z,31.08
2022-08-11T11:31:43.940Z,30.83
2022-08-11T11:34:22.214Z,31.20
2022-08-11T11:36:56.899Z,31.71
2022-08-11T11:39:28.065Z,31.08
2022-08-11T11:41:59.887Z,31.20
2022-08-11T11:44:29.199Z,31.43
2022-08-11T11:46:58.783Z,30.44
2022-08-11T11:49:29.960Z,30.46
2022-08-11T11:52:00.287Z,29.29
2022-08-11T11:54:34.059Z,28.47
2022-08-11T11:57:22.651Z,29.09
2022-08-11T12:00:11.283Z,29.08
2022-08-11T12:02:41.977Z,29.12
2022-08-11T12:05:11.750Z,29.18
2022-08-11T12:08:12.769Z,29.83
2022-08-11T12:10:47.578Z,29.86
2022-08-11T12:13:36.407Z,30.68
2022-08-11T12:16:34.517Z,30.37
2022-08-11T12:19:01.899Z,31.03
2022-08-11T12:21:32.078Z,32.26
2022-08-11T12:24:20.695Z,33.47
2022-08-11T12:27:01.420Z,33.12
2022-08-11T12:29:41.301Z,32.36
2022-08-11T12:32:12.425Z,31.77
2022-08-11T12:34:40.990Z,32.60
2022-08-11T12:37:14.043Z,32.42
2022-08-11T12:40:16.434Z,33.09
2022-08-11T12:43:22.019Z,33.35
2022-08-11T12:45:58.962Z,34.10
2022-08-11T12:48:59.054Z,34.86
2022-08-11T12:52:11.977Z,33.98
2022-08-11T12:54:59.018Z,33.23
2022-08-11T12:57:56.952Z,32.52
2022-08-11T13:00:45.999Z,31.88
2022-08-11T13:03:33.358Z,29.67
2022-08-11T13:06:04.062Z,30.10
2022-08-11T13:08:38.655Z,29.64
2022-08-11T13:11:56.198Z,29.93
2022-08-11T13:14:17.269Z,30.07
2022-08-11T13:17:04.766Z,29.66
2022-08-11T13:19:34.758Z,29.83
2022-08-11T13:22:05.582Z,29.87
2022-08-11T13:24:36.119Z,29.55
2022-08-11T13:27:05.156Z,29.73
2022-08-11T13:29:36.161Z,29.11
2022-08-11T13:32:04.740Z,29.40
2022-08-11T13:34:35.524Z,28.79
2022-08-11T13:37:05.492Z,28.39
2022-08-11T13:39:35.705Z,27.77
2022-08-11T13:42:05.384Z,27.90
2022-08-11T13:44:38.532Z,28.10
2022-08-11T13:47:09.006Z,27.70
2022-08-11T13:49:40.097Z,27.62
2022-08-11T13:52:17.092Z,27.51
2022-08-11T13:54:48.362Z,27.15
2022-08-11T13:58:08.911Z,27.88
2022-08-11T14:00:12.925Z,27.96
2022-08-11T14:02:54.346Z,27.32
2022-08-11T14:05:31.535Z,27.68
2022-08-11T14:08:04.141Z,28.76
2022-08-11T14:10:35.876Z,27.76
2022-08-11T14:13:29.527Z,27.44
2022-08-11T14:16:18.810Z,26.55
2022-08-11T14:18:52.463Z,26.48
2022-08-11T14:21:42.509Z,27.14
2022-08-11T14:24:11.971Z,28.31
2022-08-11T14:26:43.694Z,27.72
2022-08-11T14:29:14.786Z,28.02
2022-08-11T14:31:54.979Z,28.43
2022-08-11T14:34:30.334Z,29.22
2022-08-11T14:37:01.934Z,30.88
2022-08-11T14:39:37.047Z,31.25
2022-08-11T14:42:25.814Z,31.33
2022-08-11T14:45:18.590Z,31.30
2022-08-11T14:47:51.520Z,32.04
2022-08-11T14:50:26.608Z,32.56
2022-08-11T14:53:09.413Z,33.11
2022-08-11T14:56:01.535Z,33.53
2022-08-11T14:58:31.444Z,34.19
2022-08-11T15:01:02.963Z,34.86
2022-08-11T15:03:33.972Z,35.03
2022-08-11T15:06:05.470Z,34.74
2022-08-11T15:08:55.231Z,34.75
2022-08-11T15:11:44.958Z,34.87
2022-08-11T15:14:14.963Z,34.74
2022-08-11T15:17:03.582Z,35.20
2022-08-11T15:19:40.282Z,35.27
2022-08-11T15:22:29.381Z,35.72
2022-08-11T15:25:00.014Z,35.82
2022-08-11T15:27:52.318Z,35.60
2022-08-11T15:30:41.097Z,35.76
2022-08-11T15:33:30.654Z,36.03
2022-08-11T15:36:22.002Z,36.08
2022-08-11T15:39:03.518Z,36.68
2022-08-11T15:42:12.782Z,37.43
2022-08-11T15:45:04.133Z,37.02
2022-08-11T15:48:05.662Z,36.70
2022-08-11T15:50:42.836Z,36.74
2022-08-11T15:53:30.274Z,37.40
2022-08-11T15:56:00.491Z,37.62
2022-08-11T15:59:42.487Z,37.74
2022-08-11T16:02:04.505Z,37.80
2022-08-11T16:04:35.386Z,38.17
2022-08-11T16:07:06.431Z,38.05
2022-08-11T16:10:00.198Z,37.18
2022-08-11T16:12:32.998Z,36.81
2022-08-11T16:15:28.988Z,36.90
2022-08-11T16:18:05.315Z,37.23
2022-08-11T16:20:35.163Z,37.73
2022-08-11T16:23:07.710Z,38.27
2022-08-11T16:27:05.986Z,38.20
2022-08-11T16:28:27.712Z,38.77
2022-08-11T16:30:57.807Z,39.00
2022-08-11T16:33:49.916Z,38.96
2022-08-11T16:36:35.339Z,39.20
2022-08-11T16:39:05.914Z,39.07
2022-08-11T16:41:56.376Z,39.18
2022-08-11T16:44:45.683Z,39.21
2022-08-11T16:47:16.871Z,39.29
2022-08-11T16:49:53.273Z,39.45
2022-08-11T16:52:24.416Z,39.24
2022-08-11T16:54:52.954Z,39.28
2022-08-11T16:57:45.890Z,39.28
2022-08-11T17:00:17.592Z,39.71
2022-08-11T17:03:09.089Z,39.70
2022-08-11T17:06:10.492Z,40.06
2022-08-11T17:09:11.075Z,40.60
2022-08-11T17:12:09.078Z,40.74
2022-08-11T17:14:55.476Z,41.11
2022-08-11T17:17:33.210Z,42.22
2022-08-11T17:20:42.470Z,42.24
2022-08-11T17:23:19.142Z,42.50
2022-08-11T17:26:03.050Z,43.30
2022-08-11T17:28:35.114Z,44.28
2022-08-11T17:31:23.516Z,44.50
2022-08-11T17:34:11.223Z,44.71
2022-08-11T17:36:45.260Z,44.94
2022-08-11T17:39:15.765Z,45.42
2022-08-11T17:42:03.782Z,46.24
2022-08-11T17:44:52.985Z,46.03
2022-08-11T17:47:40.406Z,46.27
2022-08-11T17:50:17.659Z,46.60
2022-08-11T17:53:08.255Z,46.49
2022-08-11T17:55:57.906Z,46.71
2022-08-11T17:58:46.211Z,47.33
2022-08-11T18:01:16.296Z,49.22
2022-08-11T18:03:56.239Z,50.26
2022-08-11T18:06:34.917Z,49.80
2022-08-11T18:09:26.487Z,50.14
2022-08-11T18:12:16.709Z,50.11
2022-08-11T18:15:07.508Z,50.56
2022-08-11T18:17:56.184Z,50.47
2022-08-11T18:20:43.993Z,52.17
2022-08-11T18:23:46.896Z,52.09
2022-08-11T18:26:39.563Z,52.20
2022-08-11T18:29:30.076Z,51.96
2022-08-11T18:32:21.988Z,52.44
2022-08-11T18:35:13.660Z,53.58
2022-08-11T18:38:05.810Z,53.85
2022-08-11T18:40:54.410Z,54.76
2022-08-11T18:43:44.377Z,56.19
2022-08-11T18:46:35.288Z,56.97
2022-08-11T18:50:02.458Z,57.09
2022-08-11T18:52:48.555Z,56.69
2022-08-11T18:55:38.655Z,57.28
2022-08-11T18:58:28.701Z,57.75
2022-08-11T19:01:19.351Z,58.20
2022-08-11T19:04:10.669Z,58.13
2022-08-11T19:07:02.413Z,58.31
2022-08-11T19:09:51.110Z,58.69
2022-08-11T19:12:40.228Z,59.17
2022-08-11T19:15:29.186Z,59.58
2022-08-11T19:18:16.394Z,59.45
2022-08-11T19:21:04.383Z,60.63
2022-08-11T19:23:57.880Z,60.05
2022-08-11T19:26:47.063Z,60.49
2022-08-11T19:30:05.093Z,60.56
2022-08-11T19:32:48.347Z,59.99
2022-08-11T19:35:38.620Z,60.87
2022-08-11T19:38:27.445Z,60.99
2022-08-11T19:41:17.920Z,60.92
2022-08-11T19:44:26.654Z,62.44
2022-08-11T19:47:15.111Z,62.23
2022-08-11T19:50:03.868Z,62.14
2022-08-11T19:52:53.341Z,62.15
2022-08-11T19:55:40.942Z,61.73
2022-08-11T19:58:28.969Z,62.38
2022-08-11T20:01:16.431Z,63.32
2022-08-11T20:04:04.270Z,64.20
2022-08-11T20:06:52.501Z,65.94
2022-08-11T20:10:06.109Z,64.71
2022-08-11T20:12:50.642Z,65.39
2022-08-11T20:15:39.599Z,64.54
2022-08-11T20:18:30.154Z,66.53
2022-08-11T20:21:31.124Z,66.01
2022-08-11T20:24:21.588Z,65.52
2022-08-11T20:27:24.144Z,66.75
2022-08-11T20:30:12.749Z,68.87
2022-08-11T20:33:01.689Z,68.38
2022-08-11T20:35:51.906Z,68.74
2022-08-11T20:38:41.178Z,68.35
2022-08-11T20:41:31.430Z,70.32
2022-08-11T20:44:37.262Z,70.15
2022-08-11T20:47:26.727Z,70.59
2022-08-11T20:50:19.278Z,70.12
2022-08-11T20:53:09.292Z,69.89
2022-08-11T20:55:57.855Z,71.21
2022-08-11T20:59:13.877Z,70.75
2022-08-11T21:01:56.374Z,70.70
2022-08-11T21:04:54.390Z,71.56
2022-08-11T21:07:57.095Z,73.15
2022-08-11T21:10:51.447Z,72.30
2022-08-11T21:13:40.506Z,73.84
2022-08-11T21:16:28.632Z,73.43
2022-08-11T21:20:01.303Z,72.36
2022-08-11T21:22:59.657Z,71.83
2022-08-11T21:25:59.774Z,74.16
2022-08-11T21:28:50.415Z,75.02
2022-08-11T21:31:39.096Z,74.51
2022-08-11T21:34:29.462Z,75.25
2022-08-11T21:37:19.258Z,76.14
2022-08-11T21:40:10.680Z,75.37
2022-08-11T21:43:02.297Z,75.61
2022-08-11T21:45:52.875Z,74.56
2022-08-11T21:48:42.591Z,74.62
2022-08-11T21:51:30.314Z,75.83
2022-08-11T21:54:19.727Z,76.47
2022-08-11T21:57:07.939Z,76.04
2022-08-11T22:00:06.854Z,75.17
2022-08-11T22:02:59.202Z,75.02
2022-08-11T22:05:48.207Z,75.13
2022-08-11T22:08:36.992Z,75.81
2022-08-11T22:11:31.905Z,76.07
2022-08-11T22:14:20.841Z,75.99
2022-08-11T22:17:08.705Z,75.40
2022-08-11T22:19:58.058Z,76.23
2022-08-11T22:22:52.242Z,76.21
2022-08-11T22:25:51.473Z,76.60
2022-08-11T22:28:42.174Z,76.73
2022-08-11T22:31:31.305Z,76.34
2022-08-11T22:34:18.958Z,77.25
2022-08-11T22:37:07.616Z,77.36
2022-08-11T22:40:02.339Z,77.48
2022-08-11T22:42:51.381Z,77.15
2022-08-11T22:45:39.198Z,76.99
2022-08-11T22:48:28.415Z,76.37
2022-08-11T22:51:18.290Z,76.35
2022-08-11T22:54:06.277Z,76.30
2022-08-11T22:56:54.394Z,76.44
2022-08-11T22:59:42.801Z,76.62
2022-08-11T23:02:30.644Z,75.90
2022-08-11T23:05:18.460Z,75.62
2022-08-11T23:08:06.006Z,75.68
2022-08-11T23:10:53.399Z,75.61
2022-08-11T23:13:40.558Z,76.17
2022-08-11T23:16:27.738Z,77.60
2022-08-11T23:20:06.625Z,78.16
2022-08-11T23:22:23.669Z,78.46
2022-08-11T23:25:30.887Z,78.09
2022-08-11T23:28:19.779Z,78.03
2022-08-11T23:31:10.077Z,79.52
2022-08-11T23:34:01.229Z,78.99
2022-08-11T23:36:48.113Z,80.70
2022-08-11T23:39:35.782Z,80.10
2022-08-11T23:42:24.043Z,80.63
2022-08-11T23:45:11.151Z,81.21
2022-08-11T23:48:00.670Z,82.78
2022-08-11T23:50:48.351Z,84.01
2022-08-11T23:53:36.951Z,83.53
2022-08-11T23:56:24.487Z,82.92
2022-08-11T23:59:16.408Z,84.01
